Time;durP1;ratioP1;P1;durP2;ratioP2;P2;SDS_P1;SDS_P2;PMS_P1;PMS_P2;Temp;Humidity;BMP_temperature;BMP_pressure;BME280_temperature;BME280_humidity;BME280_pressure;Samples;Min_cycle;Max_cycle;Signal;HPM_P1;HPM_P2
2022/09/26 00:00:50;;;;;;;5.03;3.42;;;;;;;29.78;24.39;97469.31;5073782;28;20052;-80
2022/09/26 00:03:16;;;;;;;7.97;4.03;;;;;;;30.06;24.17;97469.78;5068614;28;20066;-79
2022/09/26 00:05:43;;;;;;;6.82;4.00;;;;;;;30.26;23.79;97467.03;5073108;28;20563;-79
2022/09/26 00:08:09;;;;;;;4.25;3.10;;;;;;;30.43;23.48;97465.28;5057683;28;20100;-79
2022/09/26 00:10:35;;;;;;;4.40;3.83;;;;;;;30.39;23.82;97467.53;5057572;28;20044;-79
2022/09/26 00:13:01;;;;;;;4.03;3.50;;;;;;;30.24;24.15;97457.47;5070313;28;20050;-79
2022/09/26 00:15:27;;;;;;;3.85;3.38;;;;;;;30.12;24.43;97455.72;5047922;28;20041;-80
2022/09/26 00:17:53;;;;;;;5.05;3.72;;;;;;;30.29;23.82;97456.78;5070151;28;20029;-80
2022/09/26 00:20:19;;;;;;;3.75;3.30;;;;;;;30.40;24.33;97448.47;5069392;28;20032;-80
2022/09/26 00:22:45;;;;;;;3.75;3.22;;;;;;;30.54;23.48;97444.81;5068017;28;20082;-79
2022/09/26 00:25:11;;;;;;;4.97;3.40;;;;;;;30.15;23.99;97441.38;5062500;28;20029;-80
2022/09/26 00:27:37;;;;;;;4.65;2.92;;;;;;;29.87;24.02;97431.66;5065851;28;20032;-80
2022/09/26 00:30:04;;;;;;;3.42;3.08;;;;;;;29.72;24.61;97428.00;5066329;28;20036;-79
2022/09/26 00:32:30;;;;;;;4.82;3.40;;;;;;;29.55;24.74;97424.88;5070093;28;22790;-80
2022/09/26 00:34:56;;;;;;;4.97;3.97;;;;;;;29.41;25.33;97415.13;5066549;28;20093;-79
2022/09/26 00:37:22;;;;;;;3.58;3.28;;;;;;;29.59;25.16;97419.84;5064207;28;20082;-79
2022/09/26 00:39:48;;;;;;;3.40;3.10;;;;;;;29.96;24.45;97415.34;5071043;28;20040;-79
2022/09/26 00:42:15;;;;;;;4.32;3.25;;;;;;;29.97;24.17;97413.28;5048463;28;20035;-79
2022/09/26 00:44:49;;;;;;;3.13;2.55;;;;;;;29.76;24.39;97414.47;5070866;28;20597;-79
2022/09/26 00:47:49;;;;;;;5.28;3.22;;;;;;;29.75;24.67;97408.03;5067481;28;20043;-79
2022/09/26 00:50:23;;;;;;;4.63;3.80;;;;;;;29.91;24.18;97413.19;5057293;28;20040;-79
2022/09/26 00:53:08;;;;;;;4.25;3.15;;;;;;;29.87;24.24;97411.84;5069991;28;20128;-79
2022/09/26 00:55:41;;;;;;;4.28;3.38;;;;;;;29.88;24.74;97413.38;5068400;28;20029;-79
2022/09/26 00:58:15;;;;;;;4.93;4.32;;;;;;;29.90;24.08;97410.84;5065583;28;20991;-79
2022/09/26 01:00:44;;;;;;;3.17;2.88;;;;;;;30.07;24.29;97403.41;5068508;28;20040;-79
2022/09/26 01:03:11;;;;;;;4.55;2.80;;;;;;;30.16;23.56;97405.31;5063003;28;20402;-80
2022/09/26 01:05:38;;;;;;;3.65;3.08;;;;;;;29.82;24.19;97398.38;5063871;28;20541;-79
2022/09/26 01:08:06;;;;;;;5.10;3.67;;;;;;;30.01;23.77;97402.56;5065706;28;20482;-79
2022/09/26 01:10:35;;;;;;;3.67;3.30;;;;;;;29.98;23.42;97409.19;5059790;28;20041;-79
2022/09/26 01:13:03;;;;;;;3.67;3.00;;;;;;;29.93;23.01;97399.34;5064736;28;20040;-79
2022/09/26 01:15:29;;;;;;;3.35;2.90;;;;;;;29.65;23.36;97400.09;5063681;28;20490;-79
2022/09/26 01:17:55;;;;;;;5.03;3.72;;;;;;;29.71;23.44;97398.16;5049945;28;20447;-78
2022/09/26 01:20:37;;;;;;;2.72;2.20;;;;;;;29.83;22.98;97399.91;5065030;28;20037;-79
2022/09/26 01:23:30;;;;;;;4.07;3.00;;;;;;;29.84;22.65;97398.66;5066303;28;20443;-79
2022/09/26 01:26:15;;;;;;;4.40;3.17;;;;;;;29.75;23.03;97402.34;5062248;28;20037;-79
2022/09/26 01:28:56;;;;;;;3.30;2.45;;;;;;;29.85;23.12;97394.56;5068794;28;20029;-80
2022/09/26 01:31:40;;;;;;;3.30;2.78;;;;;;;29.99;22.86;97394.53;5065264;28;20033;-80
2022/09/26 01:34:17;;;;;;;2.35;2.00;;;;;;;30.01;22.85;97394.81;5069192;28;20553;-79
2022/09/26 01:37:13;;;;;;;3.13;2.65;;;;;;;29.84;22.89;97390.16;5064558;28;20107;-80
2022/09/26 01:39:58;;;;;;;3.22;2.92;;;;;;;29.82;22.59;97387.84;5065343;28;20049;-82
2022/09/26 01:42:53;;;;;;;4.57;2.40;;;;;;;29.88;22.64;97390.75;5066746;28;20378;-80
2022/09/26 01:45:25;;;;;;;2.88;2.63;;;;;;;30.02;22.94;97393.56;5067807;28;20040;-78
2022/09/26 01:48:18;;;;;;;2.80;2.53;;;;;;;30.12;22.91;97385.72;5062671;28;20033;-79
2022/09/26 01:51:08;;;;;;;3.53;2.50;;;;;;;30.29;22.58;97391.63;5045130;28;20053;-79
2022/09/26 01:53:49;;;;;;;3.22;2.88;;;;;;;29.80;23.07;97381.88;5063722;28;20473;-79
2022/09/26 01:56:21;;;;;;;4.20;2.80;;;;;;;29.66;23.52;97391.16;5067317;28;20417;-79
2022/09/26 01:58:49;;;;;;;2.53;2.13;;;;;;;29.52;23.37;97379.81;5067797;28;20033;-79
2022/09/26 02:01:17;;;;;;;3.75;3.30;;;;;;;29.76;23.08;97375.63;5063307;28;20398;-79
2022/09/26 02:03:51;;;;;;;3.45;2.78;;;;;;;30.12;22.95;97373.63;5059336;28;20036;-78
2022/09/26 02:06:43;;;;;;;2.92;2.25;;;;;;;30.06;23.23;97365.81;5065530;28;20040;-79
2022/09/26 02:09:28;;;;;;;3.15;2.72;;;;;;;29.49;23.73;97363.81;5068218;28;20545;-79
2022/09/26 02:11:57;;;;;;;3.10;2.30;;;;;;;29.47;23.59;97361.50;5070008;28;20032;-79
2022/09/26 02:14:33;;;;;;;3.70;2.55;;;;;;;29.84;23.55;97367.53;5065469;28;20059;-80
2022/09/26 02:17:10;;;;;;;2.42;2.22;;;;;;;30.08;23.06;97365.34;5068587;28;20501;-80
2022/09/26 02:19:55;;;;;;;3.72;3.28;;;;;;;29.01;24.20;97355.47;5060366;28;20111;-80
2022/09/26 02:22:23;;;;;;;2.55;2.30;;;;;;;28.85;24.32;97358.75;5067436;28;20032;-79
2022/09/26 02:24:49;;;;;;;2.65;2.25;;;;;;;29.30;24.02;97363.22;5069450;28;20039;-79
2022/09/26 02:27:15;;;;;;;3.20;2.60;;;;;;;29.29;24.20;97348.31;5061830;28;20028;-79
2022/09/26 02:29:43;;;;;;;2.47;2.28;;;;;;;29.24;24.06;97351.81;5069581;28;20036;-79
2022/09/26 02:32:17;;;;;;;5.15;2.78;;;;;;;29.66;23.74;97347.91;5072151;28;20133;-79
2022/09/26 02:34:46;;;;;;;3.60;2.90;;;;;;;29.99;22.82;97348.47;5072490;28;20063;-79
2022/09/26 02:37:19;;;;;;;3.40;2.88;;;;;;;29.61;23.08;97342.94;5071031;28;20067;-79
2022/09/26 02:39:47;;;;;;;2.55;1.92;;;;;;;29.23;23.57;97346.66;5069412;28;20433;-79
2022/09/26 02:42:23;;;;;;;3.80;2.63;;;;;;;29.36;23.54;97347.91;5070473;28;20122;-79
2022/09/26 02:45:13;;;;;;;3.95;2.90;;;;;;;29.67;23.47;97346.63;5073055;28;20060;-79
2022/09/26 02:48:21;;;;;;;3.13;2.83;;;;;;;29.82;23.01;97347.44;5071101;28;20537;-79
2022/09/26 02:50:47;;;;;;;3.00;2.50;;;;;;;29.92;22.94;97346.06;5068278;28;20036;-79
2022/09/26 02:53:30;;;;;;;4.22;2.95;;;;;;;29.48;23.36;97346.06;5067854;28;20460;-79
2022/09/26 02:56:47;;;;;;;3.53;2.50;;;;;;;29.10;23.58;97335.59;5066819;28;20028;-79
2022/09/26 02:59:27;;;;;;;3.60;2.28;;;;;;;29.19;23.40;97334.75;5069531;28;20044;-79
2022/09/26 03:02:05;;;;;;;3.08;2.22;;;;;;;29.25;23.15;97335.63;5066202;28;20875;-79
2022/09/26 03:04:57;;;;;;;2.55;2.35;;;;;;;28.71;24.07;97322.75;5070354;28;20036;-79
2022/09/26 03:07:29;;;;;;;2.47;2.28;;;;;;;28.44;24.38;97320.91;5066571;28;20029;-79
2022/09/26 03:09:58;;;;;;;3.65;2.15;;;;;;;28.38;24.32;97316.44;5071290;28;20060;-79
2022/09/26 03:12:26;;;;;;;2.13;1.92;;;;;;;28.70;23.80;97309.91;5064850;28;20028;-79
2022/09/26 03:14:54;;;;;;;3.63;1.73;;;;;;;28.87;23.53;97305.34;5065954;28;20048;-79
2022/09/26 03:17:21;;;;;;;2.22;1.90;;;;;;;28.91;23.17;97305.16;5075190;28;20071;-79
2022/09/26 03:19:54;;;;;;;2.28;2.08;;;;;;;29.14;23.46;97307.13;5065128;28;20036;-79
2022/09/26 03:22:20;;;;;;;2.72;2.03;;;;;;;29.32;22.88;97296.44;5071510;28;20020;-79
2022/09/26 03:24:46;;;;;;;2.72;1.67;;;;;;;29.29;23.09;97302.31;5068968;28;20029;-79
2022/09/26 03:27:13;;;;;;;2.13;1.60;;;;;;;29.22;23.60;97300.63;5064876;28;20024;-79
2022/09/26 03:29:39;;;;;;;2.65;2.13;;;;;;;29.25;23.56;97296.84;5066921;28;20033;-79
2022/09/26 03:32:06;;;;;;;2.20;2.00;;;;;;;29.11;23.39;97285.47;5063929;28;20558;-79
2022/09/26 03:34:32;;;;;;;2.50;2.05;;;;;;;28.95;24.05;97289.59;5070908;28;20036;-78
2022/09/26 03:36:58;;;;;;;2.15;1.67;;;;;;;29.04;23.69;97286.66;5067426;28;20577;-79
2022/09/26 03:39:24;;;;;;;1.80;1.70;;;;;;;29.08;23.93;97283.66;5068155;28;20543;-79
2022/09/26 03:41:50;;;;;;;1.60;1.50;;;;;;;29.02;23.88;97285.59;5069934;28;20036;-79
2022/09/26 03:44:16;;;;;;;2.22;2.03;;;;;;;29.19;23.50;97281.81;5067145;28;20048;-80
2022/09/26 03:46:42;;;;;;;1.90;1.70;;;;;;;29.16;23.45;97276.31;5072308;28;20032;-79
2022/09/26 03:49:10;;;;;;;1.65;1.55;;;;;;;29.21;23.37;97270.03;5067117;28;20101;-79
2022/09/26 03:51:37;;;;;;;2.28;2.00;;;;;;;29.40;23.30;97274.19;5071873;28;20035;-79
2022/09/26 03:54:03;;;;;;;2.35;2.00;;;;;;;29.41;23.12;97281.41;5070480;28;20044;-78
2022/09/26 03:56:29;;;;;;;3.05;1.80;;;;;;;29.55;22.87;97276.97;5066832;28;20054;-79
2022/09/26 03:58:55;;;;;;;1.85;1.65;;;;;;;29.76;22.85;97292.78;5070515;28;20031;-79
2022/09/26 04:01:22;;;;;;;2.00;1.85;;;;;;;29.83;22.93;97284.66;5063953;28;20032;-79
2022/09/26 04:03:49;;;;;;;2.17;1.90;;;;;;;29.87;22.81;97290.88;5064820;28;20086;-79
2022/09/26 04:06:18;;;;;;;6.82;1.90;;;;;;;29.91;23.15;97285.81;5067946;28;20036;-79
2022/09/26 04:08:46;;;;;;;2.38;1.70;;;;;;;29.77;23.14;97292.31;5056818;28;20029;-79
2022/09/26 04:11:17;;;;;;;2.00;1.85;;;;;;;29.59;23.49;97295.34;5066987;28;20461;-79
2022/09/26 04:13:43;;;;;;;1.67;1.58;;;;;;;29.71;23.02;97291.38;5063832;28;20521;-79
2022/09/26 04:16:10;;;;;;;2.28;1.88;;;;;;;30.01;22.88;97292.13;5051075;28;20029;-79
2022/09/26 04:18:36;;;;;;;2.72;2.03;;;;;;;30.15;22.68;97284.84;5064922;28;20040;-79
2022/09/26 04:21:08;;;;;;;2.33;1.73;;;;;;;29.47;23.24;97287.16;5047381;28;20577;-79
2022/09/26 04:23:36;;;;;;;3.10;2.42;;;;;;;28.91;24.01;97279.75;5062246;28;20064;-79
2022/09/26 04:26:14;;;;;;;2.08;1.88;;;;;;;28.80;24.23;97279.53;5064415;28;20037;-79
2022/09/26 04:28:41;;;;;;;3.22;1.70;;;;;;;29.00;24.06;97271.16;5057968;28;20035;-80
2022/09/26 04:31:09;;;;;;;2.20;1.95;;;;;;;29.42;23.67;97272.44;5061750;28;20542;-80
2022/09/26 04:33:38;;;;;;;2.38;2.17;;;;;;;29.31;23.83;97272.25;5066473;28;20029;-80
2022/09/26 04:36:07;;;;;;;3.17;1.92;;;;;;;29.23;23.88;97270.31;5069450;28;20036;-79
2022/09/26 04:38:33;;;;;;;2.33;2.13;;;;;;;28.92;24.55;97265.09;5064558;28;20044;-80
2022/09/26 04:41:13;;;;;;;2.58;2.33;;;;;;;28.91;25.25;97262.78;5062021;28;20386;-79
2022/09/26 04:43:40;;;;;;;2.70;2.08;;;;;;;29.22;24.63;97263.88;5067016;28;20071;-80
2022/09/26 04:46:08;;;;;;;4.13;2.75;;;;;;;29.66;24.64;97266.66;5066865;28;20111;-79
2022/09/26 04:48:35;;;;;;;2.55;2.35;;;;;;;30.09;23.75;97262.91;5067493;28;20441;-79
2022/09/26 04:51:12;;;;;;;3.60;3.20;;;;;;;30.40;23.58;97261.50;5073017;28;20032;-79
2022/09/26 04:53:40;;;;;;;2.70;1.90;;;;;;;30.35;23.32;97260.19;5054238;28;20401;-79
2022/09/26 04:56:08;;;;;;;2.63;2.42;;;;;;;30.38;23.51;97261.22;5065884;28;20111;-79
2022/09/26 04:58:35;;;;;;;2.38;2.17;;;;;;;30.62;23.27;97253.28;5067319;28;20474;-79
2022/09/26 05:01:06;;;;;;;3.40;1.80;;;;;;;30.80;22.79;97257.84;5072876;28;20032;-79
2022/09/26 05:03:32;;;;;;;2.40;2.00;;;;;;;30.58;22.62;97249.88;5062918;28;20033;-79
2022/09/26 05:05:58;;;;;;;2.03;1.92;;;;;;;30.02;23.38;97249.16;5053253;28;20486;-78
2022/09/26 05:08:25;;;;;;;3.15;2.72;;;;;;;29.57;23.80;97246.19;5052270;28;20040;-79
2022/09/26 05:10:53;;;;;;;2.22;2.03;;;;;;;29.52;24.25;97246.88;5047603;28;20048;-79
2022/09/26 05:13:20;;;;;;;1.92;1.80;;;;;;;29.88;23.88;97244.34;5072727;28;20036;-79
2022/09/26 05:15:53;;;;;;;2.03;1.80;;;;;;;30.22;23.34;97239.13;5072676;28;20048;-79
2022/09/26 05:18:19;;;;;;;3.28;2.10;;;;;;;30.47;23.30;97239.22;5055129;28;20125;-79
2022/09/26 05:20:47;;;;;;;2.22;2.03;;;;;;;30.69;22.98;97238.69;5072933;28;20028;-79
2022/09/26 05:28:47;;;;;;;1.55;1.42;;;;;;;30.11;23.87;97227.66;5072875;28;20043;-78
2022/09/26 05:31:13;;;;;;;1.50;1.40;;;;;;;30.09;24.02;97230.97;5071626;28;20028;-79
2022/09/26 05:33:40;;;;;;;2.30;1.95;;;;;;;30.15;24.07;97226.19;5073035;28;20037;-79
2022/09/26 05:36:07;;;;;;;2.88;1.85;;;;;;;30.47;24.08;97235.59;5072677;28;20033;-79
2022/09/26 05:38:33;;;;;;;2.58;2.20;;;;;;;30.48;23.76;97240.00;5054850;28;20453;-79
2022/09/26 05:40:59;;;;;;;2.17;1.98;;;;;;;30.65;23.67;97235.25;5072881;28;20058;-79
2022/09/26 05:43:28;;;;;;;2.20;2.00;;;;;;;30.88;23.46;97231.41;5072645;28;20032;-79
2022/09/26 05:45:59;;;;;;;3.13;2.75;;;;;;;31.03;23.44;97234.91;5072664;28;20040;-79
2022/09/26 05:48:29;;;;;;;3.00;2.53;;;;;;;30.27;24.44;97233.50;5054442;28;20035;-79
2022/09/26 05:50:55;;;;;;;2.88;2.63;;;;;;;29.97;24.87;97227.22;5066171;28;20031;-79
2022/09/26 05:53:22;;;;;;;3.10;2.80;;;;;;;29.84;24.98;97238.13;5072010;28;20029;-79
2022/09/26 05:55:49;;;;;;;3.50;3.20;;;;;;;29.86;25.21;97237.63;5072731;28;20458;-79
2022/09/26 05:58:17;;;;;;;2.72;2.22;;;;;;;29.81;25.35;97233.44;5060387;28;20026;-79
2022/09/26 06:00:46;;;;;;;3.80;2.55;;;;;;;29.94;24.98;97236.69;5055863;28;20033;-79
2022/09/26 06:03:13;;;;;;;3.25;2.60;;;;;;;30.17;24.74;97225.66;5054648;28;20031;-80
2022/09/26 06:05:43;;;;;;;2.78;2.47;;;;;;;30.60;24.39;97228.25;5056396;28;20397;-79
2022/09/26 06:08:09;;;;;;;2.92;2.60;;;;;;;30.99;23.79;97240.03;5057504;28;20026;-79
2022/09/26 06:10:37;;;;;;;6.65;2.97;;;;;;;31.16;23.61;97240.16;5056378;28;20044;-79
2022/09/26 06:13:04;;;;;;;3.75;2.83;;;;;;;31.30;23.07;97236.41;5056379;28;20397;-79
2022/09/26 06:15:30;;;;;;;4.47;3.50;;;;;;;31.40;22.65;97230.06;5055850;28;20049;-79
2022/09/26 06:17:58;;;;;;;3.65;3.33;;;;;;;31.50;22.81;97227.06;5043958;28;20024;-79
2022/09/26 06:20:24;;;;;;;4.97;3.67;;;;;;;31.44;22.70;97227.00;5075414;28;20490;-79
2022/09/26 06:22:51;;;;;;;4.70;3.50;;;;;;;31.12;23.01;97217.72;5076265;28;20056;-79
2022/09/26 06:25:17;;;;;;;4.13;3.60;;;;;;;30.38;23.62;97225.19;5068108;28;20091;-79
2022/09/26 06:27:43;;;;;;;4.00;3.60;;;;;;;29.81;24.39;97227.00;5064802;28;20035;-79
2022/09/26 06:30:10;;;;;;;3.78;3.38;;;;;;;29.48;24.89;97223.66;5058639;28;20040;-80
2022/09/26 06:32:38;;;;;;;4.65;3.65;;;;;;;29.36;25.03;97231.97;5075615;28;20052;-79
2022/09/26 06:35:05;;;;;;;3.90;3.50;;;;;;;29.42;24.99;97227.19;5075435;28;20494;-79
2022/09/26 06:37:31;;;;;;;3.50;3.10;;;;;;;29.45;25.10;97228.25;5075171;28;20506;-79
2022/09/26 06:39:57;;;;;;;3.08;2.78;;;;;;;29.68;25.19;97223.69;5075804;28;20044;-79
2022/09/26 06:42:24;;;;;;;4.28;2.97;;;;;;;30.05;24.91;97225.53;5057889;28;20025;-79
2022/09/26 06:44:50;;;;;;;4.53;3.25;;;;;;;30.29;25.06;97225.31;5075645;28;20060;-79
2022/09/26 06:47:16;;;;;;;3.78;3.08;;;;;;;30.63;25.02;97221.59;5075216;28;20042;-79
2022/09/26 06:49:47;;;;;;;4.28;3.88;;;;;;;30.44;25.43;97211.88;5075431;28;20463;-79
2022/09/26 06:52:13;;;;;;;3.55;3.22;;;;;;;29.66;26.51;97220.59;5075525;28;20031;-79
2022/09/26 06:54:40;;;;;;;4.03;3.28;;;;;;;29.52;26.72;97225.03;5071551;28;20120;-79
2022/09/26 06:57:06;;;;;;;3.60;3.30;;;;;;;29.36;26.99;97225.53;5055688;28;20021;-79
2022/09/26 06:59:32;;;;;;;4.85;3.75;;;;;;;29.55;27.36;97220.41;5055490;28;20029;-79
2022/09/26 07:01:58;;;;;;;4.90;3.50;;;;;;;29.73;27.02;97228.66;5069433;28;20032;-79
2022/09/26 07:04:26;;;;;;;3.40;3.10;;;;;;;29.86;26.90;97212.13;5057857;28;20033;-79
2022/09/26 07:06:53;;;;;;;3.40;3.10;;;;;;;29.86;26.90;97217.81;5037667;28;20170;-79
2022/09/26 07:09:19;;;;;;;3.95;3.25;;;;;;;29.51;27.49;97220.63;5063574;28;20039;-79
2022/09/26 07:11:46;;;;;;;4.25;3.85;;;;;;;29.75;27.65;97215.59;5074751;28;20025;-79
2022/09/26 07:14:16;;;;;;;3.30;3.00;;;;;;;29.88;27.08;97212.44;5074756;28;20502;-79
2022/09/26 07:16:43;;;;;;;3.92;3.10;;;;;;;29.98;27.49;97220.28;5075177;28;20500;-79
2022/09/26 07:19:10;;;;;;;2.95;2.70;;;;;;;30.18;26.61;97213.84;5075080;28;20047;-79
2022/09/26 07:21:37;;;;;;;4.20;3.80;;;;;;;30.03;27.10;97215.97;5075254;28;20063;-79
2022/09/26 07:24:03;;;;;;;4.03;3.50;;;;;;;30.32;26.87;97218.63;5075238;28;20036;-79
2022/09/26 07:26:29;;;;;;;3.55;2.92;;;;;;;30.84;26.26;97210.19;5068754;28;20028;-79
2022/09/26 07:28:55;;;;;;;4.45;3.35;;;;;;;31.11;25.54;97210.47;5074399;28;20067;-79
2022/09/26 07:31:25;;;;;;;4.00;3.40;;;;;;;31.05;26.16;97215.34;5074105;28;20032;-77
2022/09/26 07:33:51;;;;;;;3.78;3.45;;;;;;;31.37;26.45;97221.75;5074873;28;20032;-77
2022/09/26 07:36:19;;;;;;;4.70;3.53;;;;;;;31.47;25.07;97225.22;5074964;28;20036;-79
2022/09/26 07:38:49;;;;;;;3.55;2.92;;;;;;;31.32;25.39;97217.59;5074779;28;20053;-79
2022/09/26 07:41:15;;;;;;;4.13;3.47;;;;;;;31.19;25.80;97222.16;5071032;28;20032;-79
2022/09/26 07:43:42;;;;;;;3.97;3.00;;;;;;;30.72;26.30;97229.94;5074584;28;20077;-79
2022/09/26 07:51:40;;;;;;;3.60;3.30;;;;;;;30.97;26.35;97219.88;5074634;28;20139;-79
2022/09/26 07:54:06;;;;;;;3.33;3.03;;;;;;;30.55;27.03;97209.13;5074455;28;20028;-79
2022/09/26 07:56:33;;;;;;;4.72;3.15;;;;;;;30.34;27.45;97218.19;5074524;28;20036;-79
2022/09/26 07:59:04;;;;;;;4.13;3.45;;;;;;;30.23;27.46;97223.66;5074683;28;20025;-79
2022/09/26 08:01:30;;;;;;;;;;;;;;;30.54;26.73;97216.09;5073860;28;20466;-79
2022/09/26 08:03:57;;;;;;;3.58;3.05;;;;;;;30.62;26.95;97220.03;5059553;28;19920;-79
2022/09/26 08:06:24;;;;;;;3.28;2.97;;;;;;;30.70;26.77;97215.50;5054384;28;20033;-79
2022/09/26 08:08:57;;;;;;;4.07;3.47;;;;;;;30.37;27.62;97217.19;5054232;28;20150;-79
2022/09/26 08:11:23;;;;;;;2.78;2.40;;;;;;;30.41;27.13;97217.75;5054069;28;20025;-79
2022/09/26 08:13:50;;;;;;;2.92;2.72;;;;;;;30.16;27.41;97219.22;5053784;28;20094;-79
2022/09/26 08:16:21;;;;;;;3.53;3.22;;;;;;;30.10;27.74;97215.56;5053663;28;20040;-79
2022/09/26 08:18:48;;;;;;;3.28;2.97;;;;;;;30.05;27.72;97216.25;5053946;28;20033;-79
2022/09/26 08:21:14;;;;;;;3.05;2.75;;;;;;;30.24;27.12;97214.69;5054882;28;20055;-79
2022/09/26 08:23:41;;;;;;;3.08;2.65;;;;;;;30.39;26.88;97209.75;5053971;28;20065;-79
2022/09/26 08:26:07;;;;;;;2.95;2.75;;;;;;;30.51;27.12;97210.63;5067271;28;20040;-79
2022/09/26 08:28:34;;;;;;;3.25;2.90;;;;;;;30.58;26.95;97216.66;5073835;28;20493;-79
2022/09/26 08:31:03;;;;;;;3.45;3.15;;;;;;;31.00;26.10;97209.59;5072999;28;20477;-79
2022/09/26 08:33:34;;;;;;;3.67;3.38;;;;;;;31.28;25.92;97207.78;5073352;28;20524;-79
2022/09/26 08:36:05;;;;;;;3.00;2.70;;;;;;;31.18;26.05;97214.94;5073251;28;20064;-78
2022/09/26 08:38:31;;;;;;;2.88;2.60;;;;;;;31.17;25.81;97213.38;5072923;28;20043;-79
2022/09/26 08:41:06;;;;;;;3.08;2.40;;;;;;;31.41;25.64;97213.81;5055558;28;20036;-79
2022/09/26 08:43:51;;;;;;;4.95;3.28;;;;;;;31.29;25.74;97223.53;5055535;28;20024;-80
2022/09/26 08:46:44;;;;;;;2.75;2.55;;;;;;;31.34;25.89;97217.88;5073564;28;20033;-79
2022/09/26 08:49:22;;;;;;;4.90;3.83;;;;;;;31.63;25.57;97221.72;5073729;28;20082;-79
2022/09/26 08:51:51;;;;;;;5.53;4.00;;;;;;;31.85;24.95;97219.03;5073346;28;20036;-79
2022/09/26 08:54:41;;;;;;;6.30;4.22;;;;;;;31.56;25.41;97222.97;5054445;28;20020;-79
2022/09/26 08:57:28;;;;;;;3.17;2.88;;;;;;;31.54;25.67;97227.59;5071166;28;20032;-78
2022/09/26 08:59:55;;;;;;;3.55;3.10;;;;;;;31.88;25.06;97229.38;5069647;28;20024;-79
2022/09/26 09:02:31;;;;;;;3.40;3.10;;;;;;;32.09;24.84;97227.97;5070695;28;20444;-80
2022/09/26 09:05:26;;;;;;;3.72;3.42;;;;;;;32.19;24.47;97231.34;5070451;28;20025;-80
2022/09/26 09:07:56;;;;;;;3.53;3.22;;;;;;;32.25;24.62;97232.16;5070345;28;20489;-80
2022/09/26 09:10:43;;;;;;;3.78;3.28;;;;;;;32.38;24.41;97236.09;5070725;28;20547;-80
2022/09/26 09:13:20;;;;;;;4.53;3.95;;;;;;;32.46;24.44;97227.84;5071200;28;20383;-80
2022/09/26 09:16:04;;;;;;;4.13;3.72;;;;;;;32.44;24.43;97224.75;5070047;28;20119;-79
2022/09/26 09:18:52;;;;;;;4.40;3.65;;;;;;;32.43;24.29;97228.88;5070894;28;20037;-80
2022/09/26 09:21:41;;;;;;;4.72;3.50;;;;;;;32.48;24.08;97228.91;5071562;28;20094;-79
2022/09/26 09:24:13;;;;;;;6.45;4.00;;;;;;;32.50;24.04;97228.41;5060816;28;20132;-80
2022/09/26 09:26:52;;;;;;;4.25;3.95;;;;;;;32.17;24.24;97223.34;5065375;28;20025;-80
2022/09/26 09:29:58;;;;;;;5.20;4.05;;;;;;;31.77;25.27;97230.06;5069979;28;20028;-79
2022/09/26 09:32:40;;;;;;;5.15;3.85;;;;;;;31.98;25.09;97231.53;5069554;28;20037;-80
2022/09/26 09:35:16;;;;;;;4.18;3.80;;;;;;;31.89;24.50;97228.84;5069444;28;20490;-80
2022/09/26 09:37:47;;;;;;;3.85;3.53;;;;;;;31.60;24.99;97232.03;5070060;28;20036;-80
2022/09/26 09:40:28;;;;;;;4.13;3.72;;;;;;;31.42;25.69;97233.19;5074866;28;20039;-80
2022/09/26 09:43:24;;;;;;;4.38;3.80;;;;;;;31.39;25.24;97228.50;5074527;28;20041;-80
2022/09/26 09:45:53;;;;;;;3.90;3.42;;;;;;;31.45;25.29;97224.94;5070052;28;20452;-80
2022/09/26 09:48:19;;;;;;;4.28;3.85;;;;;;;31.34;25.23;97229.22;5057263;28;20025;-79
2022/09/26 09:50:57;;;;;;;3.90;3.60;;;;;;;31.44;26.17;97229.09;5074138;28;20027;-79
2022/09/26 09:53:38;;;;;;;4.45;3.47;;;;;;;31.84;25.85;97237.34;5074159;28;20047;-80
2022/09/26 09:56:38;;;;;;;3.60;3.30;;;;;;;32.12;25.56;97226.94;5075102;28;20108;-80
2022/09/26 09:59:24;;;;;;;4.40;4.00;;;;;;;32.36;25.67;97227.31;5067264;28;20127;-82
2022/09/26 10:02:08;;;;;;;3.95;3.65;;;;;;;32.52;25.01;97226.59;5066720;28;20491;-81
2022/09/26 10:04:45;;;;;;;5.35;3.13;;;;;;;32.61;25.21;97232.06;5073106;28;20082;-81
2022/09/26 10:07:11;;;;;;;3.65;3.35;;;;;;;32.44;24.85;97224.75;5075490;28;20036;-82
2022/09/26 10:09:45;;;;;;;5.60;3.38;;;;;;;32.27;25.82;97219.00;5057039;28;20095;-81
2022/09/26 10:12:19;;;;;;;3.28;2.95;;;;;;;32.47;25.71;97218.03;5074921;28;20033;-81
2022/09/26 10:14:53;;;;;;;3.03;2.83;;;;;;;32.55;25.60;97219.91;5073101;28;20053;-81
2022/09/26 10:17:21;;;;;;;3.20;2.90;;;;;;;32.49;25.82;97210.56;5074238;28;20482;-81
2022/09/26 10:19:50;;;;;;;2.70;2.50;;;;;;;31.99;25.53;97213.22;5074001;28;20028;-81
2022/09/26 10:22:31;;;;;;;4.60;2.85;;;;;;;31.75;26.76;97215.63;5039171;28;20045;-81
2022/09/26 10:25:17;;;;;;;3.50;3.20;;;;;;;32.17;26.27;97211.97;5074435;28;20111;-81
2022/09/26 10:27:49;;;;;;;3.13;2.83;;;;;;;32.57;26.30;97214.47;5073318;28;20059;-81
2022/09/26 10:30:18;;;;;;;2.75;2.55;;;;;;;32.85;25.84;97208.06;5074330;28;20032;-81
2022/09/26 10:32:48;;;;;;;3.22;2.92;;;;;;;32.89;25.49;97215.03;5071180;28;20035;-81
2022/09/26 10:35:19;;;;;;;3.13;2.85;;;;;;;32.98;25.55;97202.66;5072213;28;20068;-81
2022/09/26 10:38:06;;;;;;;2.88;2.67;;;;;;;33.09;25.45;97211.22;5074279;28;20482;-81
2022/09/26 10:40:44;;;;;;;2.45;2.25;;;;;;;33.20;25.55;97205.53;5072747;28;20037;-80
2022/09/26 10:43:30;;;;;;;2.55;2.35;;;;;;;33.21;25.59;97196.47;5074958;28;20045;-81
2022/09/26 10:46:08;;;;;;;2.50;2.30;;;;;;;33.21;24.98;97198.56;5072469;28;20111;-81
2022/09/26 10:48:45;;;;;;;2.33;2.03;;;;;;;33.03;25.19;97194.13;5073194;28;20062;-81
2022/09/26 10:51:17;;;;;;;2.08;1.95;;;;;;;33.11;25.36;97189.50;5071596;28;20028;-81
2022/09/26 10:53:46;;;;;;;2.95;2.15;;;;;;;33.22;24.46;97192.34;5070328;28;20482;-81
2022/09/26 10:56:22;;;;;;;1.90;1.80;;;;;;;33.32;24.90;97184.31;5074479;28;20025;-81
2022/09/26 10:58:50;;;;;;;2.75;2.47;;;;;;;33.49;25.24;97192.84;5065941;28;20025;-81
2022/09/26 11:01:26;;;;;;;1.98;1.77;;;;;;;33.70;25.67;97194.13;5074839;28;20071;-81
2022/09/26 11:03:55;;;;;;;2.58;2.38;;;;;;;33.16;25.15;97182.25;5066109;28;20025;-81
2022/09/26 11:06:43;;;;;;;2.58;2.38;;;;;;;33.27;26.35;97202.94;5067508;28;20044;-81
2022/09/26 11:09:10;;;;;;;1.65;1.50;;;;;;;33.37;25.10;97198.53;5062671;28;20485;-81
2022/09/26 11:11:38;;;;;;;2.35;1.77;;;;;;;33.71;26.18;97193.59;5068621;28;20485;-81
2022/09/26 11:14:07;;;;;;;2.05;1.65;;;;;;;33.56;25.50;97192.34;5073316;28;20528;-82
2022/09/26 11:16:49;;;;;;;1.88;1.77;;;;;;;33.86;26.70;97187.59;5072801;28;20153;-82
2022/09/26 11:19:27;;;;;;;2.00;1.90;;;;;;;34.00;27.15;97183.66;5071990;28;20024;-81
2022/09/26 11:22:22;;;;;;;1.48;1.38;;;;;;;34.54;26.96;97178.28;5073996;28;20041;-81
2022/09/26 11:25:00;;;;;;;1.60;1.50;;;;;;;34.54;26.19;97175.44;5071499;28;20448;-82
2022/09/26 11:27:30;;;;;;;1.30;1.20;;;;;;;34.34;24.88;97164.38;5067501;28;20031;-80
2022/09/26 11:30:13;;;;;;;1.17;1.08;;;;;;;34.41;26.10;97158.88;5068781;28;20029;-80
2022/09/26 11:32:47;;;;;;;1.00;1.00;;;;;;;34.84;24.66;97150.59;5068076;28;20394;-81
2022/09/26 11:35:19;;;;;;;1.10;1.00;;;;;;;34.97;24.38;97150.75;5072505;28;20029;-80
2022/09/26 11:38:11;;;;;;;1.25;1.15;;;;;;;34.11;23.86;97138.06;5072191;28;20055;-80
2022/09/26 11:40:58;;;;;;;1.42;1.00;;;;;;;33.96;25.03;97146.91;5072168;28;20045;-80
2022/09/26 11:43:43;;;;;;;1.25;1.15;;;;;;;33.94;25.37;97149.50;5072480;28;20123;-81
2022/09/26 11:46:37;;;;;;;1.13;1.00;;;;;;;34.24;24.95;97134.63;5064143;28;20589;-81
2022/09/26 11:49:26;;;;;;;1.00;1.00;;;;;;;34.20;24.89;97126.34;5062318;28;20111;-81
2022/09/26 11:52:22;;;;;;;1.50;1.40;;;;;;;34.15;24.79;97124.31;5043543;28;20059;-81
2022/09/26 11:55:17;;;;;;;1.15;1.10;;;;;;;34.30;24.33;97130.44;5065540;28;20031;-81
2022/09/26 11:58:15;;;;;;;1.08;0.95;;;;;;;34.56;24.68;97119.44;5073828;28;20123;-80
2022/09/26 12:01:06;;;;;;;4.60;1.42;;;;;;;34.24;24.17;97129.69;5054200;28;20020;-81
2022/09/26 12:04:05;;;;;;;1.40;1.30;;;;;;;33.98;25.54;97129.31;5073147;28;20048;-81
2022/09/26 12:06:42;;;;;;;1.13;1.05;;;;;;;34.61;25.87;97132.09;5074796;28;20028;-81
2022/09/26 12:09:23;;;;;;;1.42;1.05;;;;;;;34.99;25.20;97128.16;5074163;28;20547;-81
2022/09/26 12:12:14;;;;;;;1.40;1.30;;;;;;;34.88;24.37;97128.25;5074056;28;20032;-81